sensor_id;sensor_type;location;lat;lon;timestamp;pressure;altitude;pressure_sealevel;temperature;humidity
80869;BME280;70295;40.182;44.498;2024-03-29T00:01:30;90762.02;;;8.532539;38.17012
80869;BME280;70295;40.182;44.498;2024-03-29T00:03:30;90758.61;;;8.517304;38.12422
80869;BME280;70295;40.182;44.498;2024-03-29T00:05:30;90755.42;;;8.497383;38.13398
80869;BME280;70295;40.182;44.498;2024-03-29T00:07:30;90753.64;;;8.504805;38.18965
80869;BME280;70295;40.182;44.498;2024-03-29T00:09:30;90756.3;;;8.517304;38.20137
80869;BME280;70295;40.182;44.498;2024-03-29T00:11:30;90760.95;;;8.570039;38.19551
80869;BME280;70295;40.182;44.498;2024-03-29T00:13:30;90756.31;;;8.594844;38.15351
80869;BME280;70295;40.182;44.498;2024-03-29T00:15:33;90757.2;;;8.619844;38.13398
80869;BME280;70295;40.182;44.498;2024-03-29T00:17:30;90761.28;;;8.657344;38.13691
80869;BME280;70295;40.182;44.498;2024-03-29T00:19:30;90763.39;;;8.684688;38.08418
80869;BME280;70295;40.182;44.498;2024-03-29T00:21:30;90765.16;;;8.707149;38.07637
80869;BME280;70295;40.182;44.498;2024-03-29T00:23:30;90764.45;;;8.724727;38.02168
80869;BME280;70295;40.182;44.498;2024-03-29T00:25:30;90764.08;;;8.72707;37.97773
80869;BME280;70295;40.182;44.498;2024-03-29T00:27:30;90762.84;;;8.707149;37.96504
80869;BME280;70295;40.182;44.498;2024-03-29T00:29:30;90768.53;;;8.682148;37.94062
80869;BME280;70295;40.182;44.498;2024-03-29T00:31:30;90769.42;;;8.662227;37.97285
80869;BME280;70295;40.182;44.498;2024-03-29T00:33:30;90770.51;;;8.644844;37.95918
80869;BME280;70295;40.182;44.498;2024-03-29T00:35:30;90769.8;;;8.607344;37.97871
80869;BME280;70295;40.182;44.498;2024-03-29T00:37:30;90768.56;;;8.572383;38.04121
80869;BME280;70295;40.182;44.498;2024-03-29T00:39:30;90764.84;;;8.555;38.09492
80869;BME280;70295;40.182;44.498;2024-03-29T00:41:30;90768.03;;;8.562422;38.13984
80869;BME280;70295;40.182;44.498;2024-03-29T00:43:30;90771.94;;;8.562422;38.15059
80869;BME280;70295;40.182;44.498;2024-03-29T00:45:30;90774.78;;;8.552461;38.10566
80869;BME280;70295;40.182;44.498;2024-03-29T00:47:30;90777.08;;;8.4675;38.2082
80869;BME280;70295;40.182;44.498;2024-03-29T00:49:30;90782.94;;;8.420039;38.2707
80869;BME280;70295;40.182;44.498;2024-03-29T00:51:30;90777.81;;;8.367695;38.34297
80869;BME280;70295;40.182;44.498;2024-03-29T00:53:30;90778.86;;;8.375117;38.4875
80869;BME280;70295;40.182;44.498;2024-03-29T00:55:30;90782.75;;;8.405;38.51191
80869;BME280;70295;40.182;44.498;2024-03-29T00:57:30;90785.44;;;8.415156;38.52363
80869;BME280;70295;40.182;44.498;2024-03-29T00:59:30;90791.63;;;8.405;38.52266
80869;BME280;70295;40.182;44.498;2024-03-29T01:01:30;90794.13;;;8.380196;38.5207
80869;BME280;70295;40.182;44.498;2024-03-29T01:03:30;90792.53;;;8.355195;38.61738
80869;BME280;70295;40.182;44.498;2024-03-29T01:05:30;90797.84;;;8.355195;38.63887
80869;BME280;70295;40.182;44.498;2024-03-29T01:07:30;90801.56;;;8.372578;38.675
80869;BME280;70295;40.182;44.498;2024-03-29T01:09:30;90803.54;;;8.360273;38.71699
80869;BME280;70295;40.182;44.498;2024-03-29T01:11:30;90806.36;;;8.390156;38.84101
80869;BME280;70295;40.182;44.498;2024-03-29T01:13:30;90803.34;;;8.410078;38.82051
80869;BME280;70295;40.182;44.498;2024-03-29T01:15:30;90804.41;;;8.402657;38.86445
80869;BME280;70295;40.182;44.498;2024-03-29T01:17:30;90808.5;;;8.415156;38.89863
80869;BME280;70295;40.182;44.498;2024-03-29T01:19:30;90809.38;;;8.400117;38.88594
80869;BME280;70295;40.182;44.498;2024-03-29T01:21:30;90812.39;;;8.387617;38.98457
80869;BME280;70295;40.182;44.498;2024-03-29T01:23:30;90813.8;;;8.362618;39.04805
80869;BME280;70295;40.182;44.498;2024-03-29T01:25:30;90817.2;;;8.337812;39.12226
80869;BME280;70295;40.182;44.498;2024-03-29T01:27:30;90814.53;;;8.325313;39.2209
80869;BME280;70295;40.182;44.498;2024-03-29T01:29:30;90819.13;;;8.327656;39.27656
80869;BME280;70295;40.182;44.498;2024-03-29T01:31:30;90813.82;;;8.312813;39.29707
80869;BME280;70295;40.182;44.498;2024-03-29T01:33:30;90819.32;;;8.290352;39.2834
80869;BME280;70295;40.182;44.498;2024-03-29T01:35:30;90820.56;;;8.213008;39.33223
80869;BME280;70295;40.182;44.498;2024-03-29T01:37:30;90824.46;;;8.110664;39.45527
80869;BME280;70295;40.182;44.498;2024-03-29T01:39:30;90823.75;;;8.035859;39.56953
80869;BME280;70295;40.182;44.498;2024-03-29T01:41:30;90824.8;;;7.985859;39.71894
80869;BME280;70295;40.182;44.498;2024-03-29T01:43:30;90824.27;;;7.963398;39.79316
80869;BME280;70295;40.182;44.498;2024-03-29T01:45:30;90823.93;;;7.928633;39.81172
80869;BME280;70295;40.182;44.498;2024-03-29T01:47:30;90825.52;;;7.851289;40.01387
80869;BME280;70295;40.182;44.498;2024-03-29T01:49:30;90829.23;;;7.838789;40.13496
80869;BME280;70295;40.182;44.498;2024-03-29T01:51:30;90830.83;;;7.818867;40.23164
80869;BME280;70295;40.182;44.498;2024-03-29T01:53:30;90833.67;;;7.828828;40.32051
80869;BME280;70295;40.182;44.498;2024-03-29T01:55:30;90832.24;;;7.83625;40.36543
80869;BME280;70295;40.182;44.498;2024-03-29T01:57:30;90832.42;;;7.806367;40.3957
80869;BME280;70295;40.182;44.498;2024-03-29T01:59:30;90835.77;;;7.79875;40.50508
80869;BME280;70295;40.182;44.498;2024-03-29T02:01:30;90832.23;;;7.788789;40.54805
80869;BME280;70295;40.182;44.498;2024-03-29T02:03:30;90834.01;;;7.781367;40.52461
80869;BME280;70295;40.182;44.498;2024-03-29T02:05:30;90831.7;;;7.741524;40.52168
80869;BME280;70295;40.182;44.498;2024-03-29T02:07:30;90829.75;;;7.719063;40.57441
80869;BME280;70295;40.182;44.498;2024-03-29T02:09:30;90831.69;;;7.723946;40.71797
80869;BME280;70295;40.182;44.498;2024-03-29T02:11:30;90828.31;;;7.753828;40.78633
80869;BME280;70295;40.182;44.498;2024-03-29T02:13:30;90829.41;;;7.771406;40.76582
80869;BME280;70295;40.182;44.498;2024-03-29T02:15:30;90828.5;;;7.766328;40.78828
80869;BME280;70295;40.182;44.498;2024-03-29T02:17:30;90829.92;;;7.778828;40.92109
80869;BME280;70295;40.182;44.498;2024-03-29T02:19:30;90829.23;;;7.786446;40.92207
80869;BME280;70295;40.182;44.498;2024-03-29T02:21:30;90828.88;;;7.803828;40.97773
80869;BME280;70295;40.182;44.498;2024-03-29T02:23:30;90827.46;;;7.826289;40.96992
80869;BME280;70295;40.182;44.498;2024-03-29T02:25:30;90826.22;;;7.813789;40.9582
80869;BME280;70295;40.182;44.498;2024-03-29T02:27:30;90830.64;;;7.801289;40.98945
80869;BME280;70295;40.182;44.498;2024-03-29T02:29:30;90831.34;;;7.778828;40.97578
80869;BME280;70295;40.182;44.498;2024-03-29T02:31:30;90831.88;;;7.771406;41.00801
80869;BME280;70295;40.182;44.498;2024-03-29T02:33:30;90830.28;;;7.758906;41.04023
80869;BME280;70295;40.182;44.498;2024-03-29T02:35:30;90821.95;;;7.758906;41.0959
80869;BME280;70295;40.182;44.498;2024-03-29T02:37:30;90822.31;;;7.741524;41.09394
80869;BME280;70295;40.182;44.498;2024-03-29T02:39:30;90817.52;;;7.706562;41.0793
80869;BME280;70295;40.182;44.498;2024-03-29T02:41:30;90818.03;;;7.676484;41.14277
80869;BME280;70295;40.182;44.498;2024-03-29T02:43:30;90818.56;;;7.676484;41.15351
80869;BME280;70295;40.182;44.498;2024-03-29T02:45:30;90818.73;;;7.666523;41.175
80869;BME280;70295;40.182;44.498;2024-03-29T02:47:30;90822.66;;;7.66164;41.19551
80869;BME280;70295;40.182;44.498;2024-03-29T02:49:30;90825.67;;;7.674141;41.175
80869;BME280;70295;40.182;44.498;2024-03-29T02:51:30;90824.78;;;7.66164;41.1623
80869;BME280;70295;40.182;44.498;2024-03-29T02:53:30;90824.05;;;7.636641;41.18184
80869;BME280;70295;40.182;44.498;2024-03-29T02:55:30;90823.01;;;7.631758;41.2043
80869;BME280;70295;40.182;44.498;2024-03-29T02:57:30;90830.27;;;7.641719;41.2375
80869;BME280;70295;40.182;44.498;2024-03-29T02:59:30;90831.34;;;7.66418;41.26191
80869;BME280;70295;40.182;44.498;2024-03-29T03:01:30;90826.89;;;7.679024;41.23066
80869;BME280;70295;40.182;44.498;2024-03-29T03:03:30;90825.31;;;7.684101;41.24141
80869;BME280;70295;40.182;44.498;2024-03-29T03:05:30;90830.45;;;7.691524;41.25312
80869;BME280;70295;40.182;44.498;2024-03-29T03:07:30;90833.47;;;7.706562;41.26582
80869;BME280;70295;40.182;44.498;2024-03-29T03:09:30;90835.6;;;7.709102;41.24434
80869;BME280;70295;40.182;44.498;2024-03-29T03:11:30;90837.72;;;7.713985;41.2668
80869;BME280;70295;40.182;44.498;2024-03-29T03:13:30;90842.85;;;7.723946;41.26777
80869;BME280;70295;40.182;44.498;2024-03-29T03:15:30;90835.96;;;7.751484;41.2707
80869;BME280;70295;40.182;44.498;2024-03-29T03:17:30;90828.86;;;7.776289;41.28437
80869;BME280;70295;40.182;44.498;2024-03-29T03:19:30;90824.81;;;7.818867;41.31074
80869;BME280;70295;40.182;44.498;2024-03-29T03:21:30;90827.63;;;7.886055;41.28437
80869;BME280;70295;40.182;44.498;2024-03-29T03:23:30;90824.45;;;7.946015;41.23457
80869;BME280;70295;40.182;44.498;2024-03-29T03:25:30;90820.91;;;8.003437;41.18476
80869;BME280;70295;40.182;44.498;2024-03-29T03:27:30;90821.8;;;8.065742;41.11445
80869;BME280;70295;40.182;44.498;2024-03-29T03:29:30;90827.82;;;8.140547;41.0998
80869;BME280;70295;40.182;44.498;2024-03-29T03:31:30;90827.29;;;8.230391;41.03144
80869;BME280;70295;40.182;44.498;2024-03-29T03:33:30;90829.06;;;8.310273;40.93965
80869;BME280;70295;40.182;44.498;2024-03-29T03:35:30;90828.69;;;8.427461;40.8625
80869;BME280;70295;40.182;44.498;2024-03-29T03:37:30;90830.29;;;8.507343;40.81562
80869;BME280;70295;40.182;44.498;2024-03-29T03:39:30;90826.23;;;8.644844;40.79512
80869;BME280;70295;40.182;44.498;2024-03-29T03:41:30;90832.39;;;8.826875;40.59297
80869;BME280;70295;40.182;44.498;2024-03-29T03:43:30;90830.39;;;8.956562;40.44941
80869;BME280;70295;40.182;44.498;2024-03-29T03:47:30;90829.67;;;9.048945;39.96309
80869;BME280;70295;40.182;44.498;2024-03-29T03:49:30;90829.69;;;8.994062;39.78047
80869;BME280;70295;40.182;44.498;2024-03-29T03:51:30;90830.42;;;8.944258;39.73164
80869;BME280;70295;40.182;44.498;2024-03-29T03:53:30;90827.56;;;8.949141;39.80976
80869;BME280;70295;40.182;44.498;2024-03-29T03:55:30;90830.55;;;9.023945;39.94941
80869;BME280;70295;40.182;44.498;2024-03-29T03:57:30;90832.11;;;9.22121;40.0998
80869;BME280;70295;40.182;44.498;2024-03-29T03:59:30;90830.76;;;9.445625;40.00019
80869;BME280;70295;40.182;44.498;2024-03-29T04:01:30;90838.31;;;9.620235;39.68476
80869;BME280;70295;40.182;44.498;2024-03-29T04:03:30;90838.93;;;9.784883;39.5334
80869;BME280;70295;40.182;44.498;2024-03-29T04:05:30;90837.06;;;9.93957;39.27168
80869;BME280;70295;40.182;44.498;2024-03-29T04:07:30;90838.77;;;10.05188;39.00605
80869;BME280;70295;40.182;44.498;2024-03-29T04:09:30;90839.23;;;10.18176;38.85078
80869;BME280;70295;40.182;44.498;2024-03-29T04:11:30;90836.31;;;10.2966;38.6623
80869;BME280;70295;40.182;44.498;2024-03-29T04:13:30;90837.07;;;10.47629;38.57832
80869;BME280;70295;40.182;44.498;2024-03-29T04:15:30;90833.31;;;10.67824;38.35371
80869;BME280;70295;40.182;44.498;2024-03-29T04:17:30;90821.08;;;10.84055;38.09101
80869;BME280;70295;40.182;44.498;2024-03-29T04:19:30;90821.4;;;11.03254;37.79805
80869;BME280;70295;40.182;44.498;2024-03-29T04:21:30;90821.95;;;11.17473;37.36543
80869;BME280;70295;40.182;44.498;2024-03-29T04:23:30;90825.05;;;11.28957;37.10859
80869;BME280;70295;40.182;44.498;2024-03-29T04:25:30;90824.23;;;11.38449;36.71699
80869;BME280;70295;40.182;44.498;2024-03-29T04:27:30;90820.38;;;11.50187;36.5832
80869;BME280;70295;40.182;44.498;2024-03-29T04:29:30;90819.95;;;11.70402;36.34492
80869;BME280;70295;40.182;44.498;2024-03-29T04:31:30;90822.63;;;11.95344;36.11055
80869;BME280;70295;40.182;44.498;2024-03-29T04:33:30;90823.73;;;12.18293;35.79512
80869;BME280;70295;40.182;44.498;2024-03-29T04:35:30;90828.88;;;12.43742;35.47187
80869;BME280;70295;40.182;44.498;2024-03-29T04:37:30;90830.53;;;12.63957;35.06465
80869;BME280;70295;40.182;44.498;2024-03-29T04:39:30;90834.39;;;12.80695;34.75508
80869;BME280;70295;40.182;44.498;2024-03-29T04:41:30;90835.13;;;13.00656;34.40351
80869;BME280;70295;40.182;44.498;2024-03-29T04:43:30;90835.63;;;13.22102;34.1418
80869;BME280;70295;40.182;44.498;2024-03-29T04:45:30;90834.79;;;13.47551;33.80391
80869;BME280;70295;40.182;44.498;2024-03-29T04:47:30;90834.33;;;13.705;33.36445
80869;BME280;70295;40.182;44.498;2024-03-29T04:49:30;90831.3;;;13.80754;32.86934
80869;BME280;70295;40.182;44.498;2024-03-29T04:51:30;90830.4;;;13.805;32.50019
80869;BME280;70295;40.182;44.498;2024-03-29T04:53:30;90833.98;;;13.81262;32.43281
80869;BME280;70295;40.182;44.498;2024-03-29T04:55:30;90836.03;;;13.94484;32.33027
80869;BME280;70295;40.182;44.498;2024-03-29T04:57:30;90838.88;;;14.11691;32.17598
80869;BME280;70295;40.182;44.498;2024-03-29T04:59:30;90841.03;;;14.28664;31.99922
80869;BME280;70295;40.182;44.498;2024-03-29T05:01:30;90843.31;;;14.46125;31.75312
80869;BME280;70295;40.182;44.498;2024-03-29T05:03:30;90847.62;;;14.60832;31.49531
80869;BME280;70295;40.182;44.498;2024-03-29T05:05:30;90849.25;;;14.75305;31.12519
80869;BME280;70295;40.182;44.498;2024-03-29T05:07:30;90849.73;;;14.86301;30.94258
80869;BME280;70295;40.182;44.498;2024-03-29T05:09:29;90848.31;;;15.0052;30.76191
80869;BME280;70295;40.182;44.498;2024-03-29T05:11:29;90849.05;;;15.13742;30.54609
80869;BME280;70295;40.182;44.498;2024-03-29T05:13:30;90851.02;;;15.28215;30.38887
80869;BME280;70295;40.182;44.498;2024-03-29T05:15:29;90851.37;;;15.42687;30.18574
80869;BME280;70295;40.182;44.498;2024-03-29T05:17:29;90852.55;;;15.53176;30.14863
80869;BME280;70295;40.182;44.498;2024-03-29T05:19:29;90848.08;;;15.44934;30.41133
80869;BME280;70295;40.182;44.498;2024-03-29T05:21:29;90847.13;;;15.26476;30.94844
80869;BME280;70295;40.182;44.498;2024-03-29T05:23:30;90851.01;;;15.21984;31.53047
80869;BME280;70295;40.182;44.498;2024-03-29T05:25:29;90852.55;;;15.32219;31.77363
80869;BME280;70295;40.182;44.498;2024-03-29T05:27:29;90855.03;;;15.33215;31.85273
80869;BME280;70295;40.182;44.498;2024-03-29T05:29:29;90854.07;;;15.28215;31.62422
80869;BME280;70295;40.182;44.498;2024-03-29T05:31:30;90856.63;;;15.19738;31.98848
80869;BME280;70295;40.182;44.498;2024-03-29T05:33:29;90854.97;;;15.28469;32.2082
80869;BME280;70295;40.182;44.498;2024-03-29T05:35:29;90854.23;;;15.42941;32.10664
80869;BME280;70295;40.182;44.498;2024-03-29T05:37:29;90853.83;;;15.51926;31.97871
80869;BME280;70295;40.182;44.498;2024-03-29T05:39:29;90861.52;;;15.59406;32.01875
80869;BME280;70295;40.182;44.498;2024-03-29T05:41:29;90863.52;;;15.65148;31.79805
80869;BME280;70295;40.182;44.498;2024-03-29T05:43:29;90865.53;;;15.70383;31.79023
80869;BME280;70295;40.182;44.498;2024-03-29T05:45:30;90873.48;;;15.82121;31.7541
80869;BME280;70295;40.182;44.498;2024-03-29T05:47:29;90871.11;;;15.96848;31.74336
80869;BME280;70295;40.182;44.498;2024-03-29T05:49:30;90869.95;;;16.1257;31.64277
80869;BME280;70295;40.182;44.498;2024-03-29T05:51:29;90871.75;;;16.31281;31.29609
80869;BME280;70295;40.182;44.498;2024-03-29T05:53:29;90871.48;;;16.46496;31.01387
80869;BME280;70295;40.182;44.498;2024-03-29T05:55:29;90872.52;;;16.60481;30.75312
80869;BME280;70295;40.182;44.498;2024-03-29T05:57:29;90868.02;;;16.71945;30.54805
80869;BME280;70295;40.182;44.498;2024-03-29T05:59:29;90869.47;;;16.77434;30.56367
80869;BME280;70295;40.182;44.498;2024-03-29T06:01:29;90864.94;;;16.85441;30.64863
80869;BME280;70295;40.182;44.498;2024-03-29T06:03:29;90864.95;;;16.96164;30.54316
80869;BME280;70295;40.182;44.498;2024-03-29T06:05:29;90861.78;;;16.9966;30.13984
80869;BME280;70295;40.182;44.498;2024-03-29T06:07:30;90860.05;;;16.86691;29.88203
80869;BME280;70295;40.182;44.498;2024-03-29T06:09:30;90859.66;;;16.63469;29.6291
80869;BME280;70295;40.182;44.498;2024-03-29T06:11:29;90865.5;;;16.54992;29.96113
80869;BME280;70295;40.182;44.498;2024-03-29T06:13:29;90866.59;;;16.59465;29.9084
80869;BME280;70295;40.182;44.498;2024-03-29T06:15:29;90865.77;;;16.62961;29.53828
80869;BME280;70295;40.182;44.498;2024-03-29T06:17:29;90862.98;;;16.54231;29.26191
80869;BME280;70295;40.182;44.498;2024-03-29T06:19:29;90864.86;;;16.33781;29.56269
80869;BME280;70295;40.182;44.498;2024-03-29T06:21:30;90864.96;;;16.42512;29.9416
80869;BME280;70295;40.182;44.498;2024-03-29T06:23:29;90866.3;;;16.57726;30.00801
80869;BME280;70295;40.182;44.498;2024-03-29T06:25:29;90869.03;;;16.73937;30.06465
80869;BME280;70295;40.182;44.498;2024-03-29T06:27:30;90860.84;;;16.89934;30.01973
80869;BME280;70295;40.182;44.498;2024-03-29T06:29:29;90860.92;;;16.99172;29.67695
80869;BME280;70295;40.182;44.498;2024-03-29T06:31:29;90862.55;;;17.0466;29.62422
80869;BME280;70295;40.182;44.498;2024-03-29T06:33:29;90860.07;;;17.08137;29.60371
80869;BME280;70295;40.182;44.498;2024-03-29T06:35:29;90857.84;;;17.15871;29.75605
80869;BME280;70295;40.182;44.498;2024-03-29T06:37:29;90856.83;;;17.19113;29.6457
80869;BME280;70295;40.182;44.498;2024-03-29T06:39:29;90855.22;;;17.19113;29.57734
80869;BME280;70295;40.182;44.498;2024-03-29T06:41:29;90852.23;;;17.22609;29.52363
80869;BME280;70295;40.182;44.498;2024-03-29T06:43:29;90853.12;;;17.23371;29.33223
80869;BME280;70295;40.182;44.498;2024-03-29T06:45:29;90848.63;;;17.22609;29.19648
80869;BME280;70295;40.182;44.498;2024-03-29T06:47:29;90838.58;;;17.16633;28.95527
80869;BME280;70295;40.182;44.498;2024-03-29T06:49:29;90844.2;;;17.14875;28.99922
80869;BME280;70295;40.182;44.498;2024-03-29T06:51:29;90846.08;;;17.18117;29.01289
80869;BME280;70295;40.182;44.498;2024-03-29T06:53:29;90842.66;;;17.18625;28.95723
80869;BME280;70295;40.182;44.498;2024-03-29T06:55:30;90841.79;;;17.17375;28.92207
80869;BME280;70295;40.182;44.498;2024-03-29T06:57:29;90836.5;;;17.14387;28.93086
80869;BME280;70295;40.182;44.498;2024-03-29T06:59:29;90827.97;;;17.10891;28.96211
80869;BME280;70295;40.182;44.498;2024-03-29T07:01:29;90824.45;;;17.08644;29.10762
80869;BME280;70295;40.182;44.498;2024-03-29T07:03:29;90824.8;;;17.03156;29.17207
80869;BME280;70295;40.182;44.498;2024-03-29T07:05:29;90821.93;;;16.97414;29.11152
80869;BME280;70295;40.182;44.498;2024-03-29T07:07:29;90824.09;;;16.92434;29.08516
80869;BME280;70295;40.182;44.498;2024-03-29T07:09:29;90824.59;;;16.92922;29.10859
80869;BME280;70295;40.182;44.498;2024-03-29T07:11:29;90826.53;;;16.94426;29.14277
80869;BME280;70295;40.182;44.498;2024-03-29T07:13:29;90829.91;;;16.95168;29.27949
80869;BME280;70295;40.182;44.498;2024-03-29T07:15:29;90830.92;;;16.9716;29.35957
80869;BME280;70295;40.182;44.498;2024-03-29T07:17:29;90830.84;;;16.94426;29.38008
80869;BME280;70295;40.182;44.498;2024-03-29T07:19:29;90831.93;;;16.93664;29.28926
80869;BME280;70295;40.182;44.498;2024-03-29T07:21:29;90827.22;;;16.95676;29.26777
80869;BME280;70295;40.182;44.498;2024-03-29T07:23:29;90825.74;;;16.96418;29.3918
80869;BME280;70295;40.182;44.498;2024-03-29T07:25:29;90822.79;;;16.98918;29.33809
80869;BME280;70295;40.182;44.498;2024-03-29T07:27:31;90822.44;;;16.9841;29.2248
80869;BME280;70295;40.182;44.498;2024-03-29T07:29:29;90821.25;;;16.96418;29.40351
80869;BME280;70295;40.182;44.498;2024-03-29T07:31:29;90821.97;;;16.96672;29.33613
80869;BME280;70295;40.182;44.498;2024-03-29T07:33:29;90817.76;;;16.9841;29.38301
80869;BME280;70295;40.182;44.498;2024-03-29T07:35:29;90816.14;;;17.04152;29.39766
80869;BME280;70295;40.182;44.498;2024-03-29T07:37:29;90813.69;;;17.07902;29.54707
80869;BME280;70295;40.182;44.498;2024-03-29T07:39:29;90812.47;;;17.11379;29.32441
80869;BME280;70295;40.182;44.498;2024-03-29T07:41:29;90811.42;;;17.11144;29.22187
80869;BME280;70295;40.182;44.498;2024-03-29T07:43:36;90809.8;;;17.10637;29.23359
80869;BME280;70295;40.182;44.498;2024-03-29T07:45:29;90808.08;;;17.08137;29.29902
80869;BME280;70295;40.182;44.498;2024-03-29T07:47:29;90807.75;;;17.07395;29.08418
80869;BME280;70295;40.182;44.498;2024-03-29T07:49:29;90802.29;;;17.03898;28.88984
80869;BME280;70295;40.182;44.498;2024-03-29T07:51:29;90796.6;;;17.0216;29.03535
80869;BME280;70295;40.182;44.498;2024-03-29T07:53:29;90797;;;17.06145;29.15059
80869;BME280;70295;40.182;44.498;2024-03-29T07:55:29;90795.55;;;17.06906;29.09492
80869;BME280;70295;40.182;44.498;2024-03-29T07:57:29;90792.46;;;17.07648;29.31074
80869;BME280;70295;40.182;44.498;2024-03-29T07:59:29;90794.16;;;17.05402;29.13887
80869;BME280;70295;40.182;44.498;2024-03-29T08:01:29;90788.33;;;16.96672;28.91914
80869;BME280;70295;40.182;44.498;2024-03-29T08:03:29;90787.87;;;16.94426;29.01875
80869;BME280;70295;40.182;44.498;2024-03-29T08:05:29;90784.27;;;16.93664;28.89375
80869;BME280;70295;40.182;44.498;2024-03-29T08:07:31;90781.83;;;16.91926;28.81465
80869;BME280;70295;40.182;44.498;2024-03-29T08:09:29;90783.52;;;16.89934;28.80195
80869;BME280;70295;40.182;44.498;2024-03-29T08:11:29;90784.09;;;16.89191;28.73359
80869;BME280;70295;40.182;44.498;2024-03-29T08:13:29;90780.61;;;16.90676;28.93769
80869;BME280;70295;40.182;44.498;2024-03-29T08:15:29;90780.5;;;16.93918;28.91719
80869;BME280;70295;40.182;44.498;2024-03-29T08:17:29;90776.47;;;16.96164;28.54609
80869;BME280;70295;40.182;44.498;2024-03-29T08:19:29;90777.19;;;16.9591;28.27559
80869;BME280;70295;40.182;44.498;2024-03-29T08:21:29;90776.11;;;16.9591;28.11738
80869;BME280;70295;40.182;44.498;2024-03-29T08:23:29;90771.25;;;16.96418;27.88008
80869;BME280;70295;40.182;44.498;2024-03-29T08:25:29;90771.53;;;16.9343;27.63008
80869;BME280;70295;40.182;44.498;2024-03-29T08:27:29;90765.32;;;16.68215;27.38887
80869;BME280;70295;40.182;44.498;2024-03-29T08:29:29;90763.23;;;16.53977;27.86445
80869;BME280;70295;40.182;44.498;2024-03-29T08:31:29;90762.3;;;16.55988;28.45137
80869;BME280;70295;40.182;44.498;2024-03-29T08:33:29;90759.28;;;16.60481;28.49922
80869;BME280;70295;40.182;44.498;2024-03-29T08:35:29;90760.83;;;16.68215;28.3918
80869;BME280;70295;40.182;44.498;2024-03-29T08:37:29;90755.52;;;16.71203;28.18086
80869;BME280;70295;40.182;44.498;2024-03-29T08:39:30;90750.58;;;16.73449;28.06855
80869;BME280;70295;40.182;44.498;2024-03-29T08:41:29;90751.48;;;16.72941;28.0793
80869;BME280;70295;40.182;44.498;2024-03-29T08:43:29;90745.55;;;16.72688;28.1584
80869;BME280;70295;40.182;44.498;2024-03-29T08:45:29;90738.94;;;16.71945;28.14668
80869;BME280;70295;40.182;44.498;2024-03-29T08:47:29;90736.31;;;16.69953;28.16816
80869;BME280;70295;40.182;44.498;2024-03-29T08:49:29;90738.58;;;16.66711;28.12129
80869;BME280;70295;40.182;44.498;2024-03-29T08:51:29;90729.84;;;16.64211;28.20918
80869;BME280;70295;40.182;44.498;2024-03-29T08:53:29;90738.72;;;16.62473;28.24141
80869;BME280;70295;40.182;44.498;2024-03-29T08:55:29;90739.59;;;16.62961;28.36641
80869;BME280;70295;40.182;44.498;2024-03-29T08:57:29;90741.31;;;16.64953;28.3332
80869;BME280;70295;40.182;44.498;2024-03-29T08:59:29;90736.56;;;16.61711;28.32051
80869;BME280;70295;40.182;44.498;2024-03-29T09:01:29;90735.05;;;16.58723;28.45332
80869;BME280;70295;40.182;44.498;2024-03-29T09:03:29;90731.09;;;16.5923;28.5334
80869;BME280;70295;40.182;44.498;2024-03-29T09:05:29;90734.84;;;16.60227;28.62324
80869;BME280;70295;40.182;44.498;2024-03-29T09:07:29;90730.67;;;16.60715;28.87226
80869;BME280;70295;40.182;44.498;2024-03-29T09:09:31;90726.6;;;16.64465;28.84101
80869;BME280;70295;40.182;44.498;2024-03-29T09:11:29;90734.59;;;16.67961;28.75312
80869;BME280;70295;40.182;44.498;2024-03-29T09:13:30;90730.42;;;16.68703;28.61836
80869;BME280;70295;40.182;44.498;2024-03-29T09:15:29;90724.45;;;16.70207;28.54023
80869;BME280;70295;40.182;44.498;2024-03-29T09:17:29;90717.47;;;16.69211;28.66328
80869;BME280;70295;40.182;44.498;2024-03-29T09:19:29;90722.97;;;16.65715;28.72871
80869;BME280;70295;40.182;44.498;2024-03-29T09:21:29;90714.59;;;16.62961;28.7834
80869;BME280;70295;40.182;44.498;2024-03-29T09:23:29;90710.5;;;16.62219;28.70332
80869;BME280;70295;40.182;44.498;2024-03-29T09:25:29;90707.41;;;16.62961;28.88496
80869;BME280;70295;40.182;44.498;2024-03-29T09:27:29;90707.77;;;16.63723;28.92988
80869;BME280;70295;40.182;44.498;2024-03-29T09:29:29;90704.34;;;16.63723;28.84004
80869;BME280;70295;40.182;44.498;2024-03-29T09:31:29;90706.15;;;16.63469;28.8625
80869;BME280;70295;40.182;44.498;2024-03-29T09:33:29;90702.52;;;16.5923;28.6125
80869;BME280;70295;40.182;44.498;2024-03-29T09:35:29;90702.66;;;16.54992;28.47383
80869;BME280;70295;40.182;44.498;2024-03-29T09:37:29;90695.45;;;16.49738;28.49238
80869;BME280;70295;40.182;44.498;2024-03-29T09:39:29;90692.17;;;16.46008;28.56855
80869;BME280;70295;40.182;44.498;2024-03-29T09:41:29;90690.52;;;16.4675;28.71601
80869;BME280;70295;40.182;44.498;2024-03-29T09:43:29;90689.22;;;16.48;28.97578
80869;BME280;70295;40.182;44.498;2024-03-29T09:47:29;90680.92;;;16.53977;29.11543